• Join FlightAware (Why Join?)
  • Login
  • US Flag 
08:05AM EDT


 

Airport Tracker/Info


-or-


 

Live Flight TrackerFlight Track Log ✈ N781JS ✈ 2014年 01月 19日 ✈ KNEW - KHOU

Flight Track Log - Related Links

Times and Time Zones

All times are in EST time to prevent confusion due to time zone crossing. See the N781JS flight status page for this flight to view local times or setup timezone preferences in your user account.

Time Position Orientation Groundspeed Altitude Reporting Facility
EST Latitude Longitude Course Direction KTS MPH feet Rate Location/Type
04:01PM 30.0547 -90.0297 348° North 163 188 900  Level Houston Center
04:02PM 30.1117 -90.0442 348° North 209 241 2,100 1,080 Climbing Houston Center
04:03PM 30.1133 -90.0564 279° West 216 249 2,400 3,180 Climbing Houston Center
04:03PM 30.0736 -90.0986 223° Southwest 248 285 5,300 3,480 Climbing Houston Center
04:04PM 30.0642 -90.1042 207° Southwest 233 268 6,000 3,780 Climbing Houston Center
04:05PM 30.0200 -90.1611 228° Southwest 247 284 10,200 3,600 Climbing Houston Center
04:06PM 29.9981 -90.2397 252° West 256 295 13,500 3,360 Climbing Houston Center
04:07PM 29.9692 -90.3347 251° West 262 302 17,300 3,120 Climbing Houston Center
04:08PM 29.9419 -90.4178 249° West 272 313 20,000 2,580 Climbing Houston Center
04:09PM 29.9178 -90.5047 252° West 283 326 22,700 2,040 Climbing Houston Center
04:10PM 29.8908 -90.6003 252° West 308 354 24,300 1,740 Climbing Houston Center
04:11PM 29.8581 -90.7053 250° West 343 395 26,300 2,040 Climbing Houston Center
04:12PM 29.8231 -90.8064 248° West 341 392 28,600 2,520 Climbing Houston Center
04:13PM 29.7819 -90.9264 248° West 337 388 31,600 2,580 Climbing Houston Center
04:14PM 29.7486 -91.0231 248° West 328 377 34,000 2,040 Climbing Houston Center
04:15PM 29.7158 -91.1181 248° West 321 369 35,900 1,020 Climbing Houston Center
04:16PM 29.6814 -91.2189 249° West 336 387 36,200 540 Climbing Houston Center
04:17PM 29.6439 -91.3278 248° West 362 417 37,100 900 Climbing Houston Center
04:18PM 29.6061 -91.4361 248° West 365 420 38,100 840 Climbing Houston Center
04:19PM 29.5608 -91.5675 248° West 368 423 38,900 660 Climbing Houston Center
04:20PM 29.5219 -91.6797 248° West 377 434 39,500 660 Climbing Houston Center
04:21PM 29.4844 -91.7856 248° West 377 434 40,300 720 Climbing Houston Center
04:22PM 29.4464 -91.8947 248° West 371 427 41,000 720 Climbing Houston Center
04:23PM 29.4078 -92.0019 248° West 365 420 41,900 840 Climbing Houston Center
04:24PM 29.3636 -92.1292 248° West 359 413 42,800 480 Climbing Houston Center
04:25PM 29.3261 -92.2347 248° West 359 413 43,000 60 Climbing Houston Center
04:26PM 29.2869 -92.3453 248° West 371 427 43,000  Level Houston Center
04:27PM 29.2478 -92.4589 248° West 381 438 43,000  Level Houston Center
04:28PM 29.2450 -92.5747 268° West 365 420 43,000  Level Houston Center
04:29PM 29.2475 -92.6878 271° West 358 412 43,000 -720 Level Houston Center
04:31PM 29.2503 -92.8228 271° West 355 409 41,600 -1,680 Descending Houston Center
04:32PM 29.2519 -92.9350 271° West 353 406 39,600 -1,980 Descending Houston Center
04:33PM 29.2539 -93.0422 271° West 341 392 37,600 -1,980 Descending Houston Center
04:34PM 29.2553 -93.1458 271° West 330 380 35,600 -1,980 Descending Houston Center
04:35PM 29.2578 -93.2492 272° West 326 375 33,600 -1,980 Descending Houston Center
04:36PM 29.2583 -93.3614 270° West 344 396 31,600 -2,280 Descending Houston Center
04:37PM 29.2606 -93.5022 271° West 365 420 29,000 -2,400 Descending Houston Center
04:38PM 29.2619 -93.6256 271° West 381 438 26,700 -2,220 Descending Houston Center
04:39PM 29.2631 -93.7456 271° West 379 436 24,400 -2,280 Descending Houston Center
04:40PM 29.2642 -93.8622 271° West 365 420 22,100 -2,280 Descending Houston Center
04:41PM 29.2653 -93.9733 271° West 353 406 19,800 -2,100 Descending Houston Center
04:42PM 29.2661 -94.0800 271° West 338 389 17,800 -1,980 Descending Houston Center
04:42PM 29.2647 -94.1092 267° West 336 387 17,500 -2,220 Descending Houston Center
04:43PM 29.2656 -94.2003 271° West 327 376 15,700 -2,160 Descending Houston Center
04:43PM 29.2669 -94.2053 288° West 330 380 15,600 -1,920 Descending Houston Center
04:44PM 29.2672 -94.3036 270° West 315 362 13,600 -2,100 Descending Houston Center
04:44PM 29.2661 -94.3128 262° West 312 359 13,400 -1,560 Descending Houston Center
04:45PM 29.2681 -94.3975 272° West 299 344 12,000 -1,380 Descending Houston Center
04:45PM 29.2669 -94.4039 259° West 283 326 12,000 -120 Level Houston Center
04:46PM 29.2703 -94.4831 273° West 275 316 11,900 -960 Descending Houston Center
04:47PM 29.3108 -94.5708 298° West 275 316 10,100 -1,560 Descending Houston Center
04:47PM 29.3069 -94.5617 116° Southeast 281 323 10,300 -1,500 Climbing Houston Center
04:48PM 29.3450 -94.6408 299° West 267 307 8,700 -1,440 Descending Houston Center
04:48PM 29.3433 -94.6361 112° Southeast 273 314 8,800 -1,500 Climbing Houston Center
04:49PM 29.3636 -94.7306 284° West 271 312 7,000 -1,440 Descending Houston Center
04:50PM 29.3775 -94.8044 282° West 242 278 6,000 -1,020 Descending Houston Center
04:50PM 29.3789 -94.8053 332° Northwest 251 289 6,000  Level Houston Center
04:51PM 29.4008 -94.8800 289° West 247 284 6,000 -300 Level Houston Center
04:52PM 29.4211 -94.9528 288° West 251 289 5,500 -600 Descending Houston Center
04:52PM 29.4225 -94.9572 290° West 252 290 5,400 -1,320 Descending Houston Center
04:53PM 29.4411 -95.0294 287° West 247 284 4,200 -1,200 Descending Houston Center
04:53PM 29.4436 -95.0319 319° Northwest 250 288 4,200 -240 Level Houston Center
04:54PM 29.4867 -95.0911 310° West 249 287 4,000 -240 Descending Houston Center
04:54PM 29.4872 -95.0908 24° Northeast 242 278 4,000 -1,020 Level Houston Center
04:55PM 29.5342 -95.1500 312° West 248 285 3,000 -1,020 Descending Houston Center
04:55PM 29.5356 -95.1489 35° Northeast 247 284 3,000 -1,200 Level Houston Center
04:56PM 29.5767 -95.1978 314° West 198 228 1,800 -1,200 Descending Houston Center
04:56PM 29.5781 -95.2003 303° West 231 266 1,800 -960 Level Houston Center
04:57PM 29.6150 -95.2425 315° West 178 205 700 -780 Descending Houston Center
04:58PM 29.6319 -95.2631 313° West 139 160 200 -540 Descending Houston Center
05:00PM 29.6454 -95.2789 312° West  Level Estimated
05:07PM 29.6454 -95.2789 115° Southeast  Level Estimated